sensor_id;sensor_type;location;lat;lon;timestamp;temperature;humidity
27114;DHT22;14648;49.730;8.614;2023-03-31T00:00:56;13.30;57.00
27114;DHT22;14648;49.730;8.614;2023-03-31T00:03:22;13.30;57.10
27114;DHT22;14648;49.730;8.614;2023-03-31T00:05:53;13.30;57.20
27114;DHT22;14648;49.730;8.614;2023-03-31T00:08:23;13.40;57.20
27114;DHT22;14648;49.730;8.614;2023-03-31T00:10:50;13.40;57.20
27114;DHT22;14648;49.730;8.614;2023-03-31T00:13:16;13.40;57.10
27114;DHT22;14648;49.730;8.614;2023-03-31T00:15:42;13.40;57.20
27114;DHT22;14648;49.730;8.614;2023-03-31T00:18:08;13.40;57.10
27114;DHT22;14648;49.730;8.614;2023-03-31T00:20:34;13.40;57.10
27114;DHT22;14648;49.730;8.614;2023-03-31T00:23:02;13.40;57.10
27114;DHT22;14648;49.730;8.614;2023-03-31T00:25:37;13.40;57.10
27114;DHT22;14648;49.730;8.614;2023-03-31T00:28:05;13.40;57.10
27114;DHT22;14648;49.730;8.614;2023-03-31T00:30:30;13.40;57.00
27114;DHT22;14648;49.730;8.614;2023-03-31T00:32:56;13.50;57.00
27114;DHT22;14648;49.730;8.614;2023-03-31T00:35:22;13.50;57.00
27114;DHT22;14648;49.730;8.614;2023-03-31T00:37:47;13.50;57.10
27114;DHT22;14648;49.730;8.614;2023-03-31T00:40:13;13.40;57.10
27114;DHT22;14648;49.730;8.614;2023-03-31T00:42:43;13.40;57.20
27114;DHT22;14648;49.730;8.614;2023-03-31T00:47:51;13.40;57.20
27114;DHT22;14648;49.730;8.614;2023-03-31T00:50:28;13.50;57.30
27114;DHT22;14648;49.730;8.614;2023-03-31T00:53:01;13.40;57.10
27114;DHT22;14648;49.730;8.614;2023-03-31T00:55:34;13.40;57.10
27114;DHT22;14648;49.730;8.614;2023-03-31T00:58:06;13.40;57.50
27114;DHT22;14648;49.730;8.614;2023-03-31T01:00:33;13.30;57.20
27114;DHT22;14648;49.730;8.614;2023-03-31T01:03:02;13.30;57.30
27114;DHT22;14648;49.730;8.614;2023-03-31T01:05:52;13.30;57.50
27114;DHT22;14648;49.730;8.614;2023-03-31T01:08:23;13.30;57.60
27114;DHT22;14648;49.730;8.614;2023-03-31T01:11:02;13.30;57.50
27114;DHT22;14648;49.730;8.614;2023-03-31T01:13:35;13.30;57.40
27114;DHT22;14648;49.730;8.614;2023-03-31T01:16:03;13.30;57.40
27114;DHT22;14648;49.730;8.614;2023-03-31T01:18:29;13.40;57.20
27114;DHT22;14648;49.730;8.614;2023-03-31T01:32:38;13.60;56.40
27114;DHT22;14648;49.730;8.614;2023-03-31T01:41:48;13.60;56.20
27114;DHT22;14648;49.730;8.614;2023-03-31T01:45:00;13.60;56.20
27114;DHT22;14648;49.730;8.614;2023-03-31T01:47:39;13.60;56.20
27114;DHT22;14648;49.730;8.614;2023-03-31T01:50:34;13.60;56.20
27114;DHT22;14648;49.730;8.614;2023-03-31T01:53:20;13.60;56.30
27114;DHT22;14648;49.730;8.614;2023-03-31T01:56:09;13.50;56.30
27114;DHT22;14648;49.730;8.614;2023-03-31T01:58:50;13.50;56.40
27114;DHT22;14648;49.730;8.614;2023-03-31T02:01:30;13.50;56.40
27114;DHT22;14648;49.730;8.614;2023-03-31T02:04:33;13.50;56.50
27114;DHT22;14648;49.730;8.614;2023-03-31T02:07:11;13.50;56.50
27114;DHT22;14648;49.730;8.614;2023-03-31T02:09:47;13.50;56.40
27114;DHT22;14648;49.730;8.614;2023-03-31T02:12:15;13.40;56.30
27114;DHT22;14648;49.730;8.614;2023-03-31T02:14:44;13.40;56.40
27114;DHT22;14648;49.730;8.614;2023-03-31T02:17:15;13.40;56.70
27114;DHT22;14648;49.730;8.614;2023-03-31T02:19:46;13.30;56.80
27114;DHT22;14648;49.730;8.614;2023-03-31T02:22:15;13.30;56.80
27114;DHT22;14648;49.730;8.614;2023-03-31T02:24:46;13.30;56.80
27114;DHT22;14648;49.730;8.614;2023-03-31T02:27:28;13.30;56.70
27114;DHT22;14648;49.730;8.614;2023-03-31T02:29:56;13.40;56.70
27114;DHT22;14648;49.730;8.614;2023-03-31T02:32:42;13.30;56.70
27114;DHT22;14648;49.730;8.614;2023-03-31T02:35:18;13.30;56.70
27114;DHT22;14648;49.730;8.614;2023-03-31T02:37:45;13.40;56.80
27114;DHT22;14648;49.730;8.614;2023-03-31T02:40:17;13.30;56.80
27114;DHT22;14648;49.730;8.614;2023-03-31T02:42:44;13.20;57.00
27114;DHT22;14648;49.730;8.614;2023-03-31T02:45:36;13.20;57.20
27114;DHT22;14648;49.730;8.614;2023-03-31T02:48:06;13.10;57.70
27114;DHT22;14648;49.730;8.614;2023-03-31T03:08:19;12.50;59.20
27114;DHT22;14648;49.730;8.614;2023-03-31T03:11:07;12.50;59.30
27114;DHT22;14648;49.730;8.614;2023-03-31T03:14:08;12.50;59.20
27114;DHT22;14648;49.730;8.614;2023-03-31T03:17:05;12.50;59.30
27114;DHT22;14648;49.730;8.614;2023-03-31T03:19:33;12.50;59.10
27114;DHT22;14648;49.730;8.614;2023-03-31T03:21:58;12.50;59.00
27114;DHT22;14648;49.730;8.614;2023-03-31T03:24:24;12.50;59.10
27114;DHT22;14648;49.730;8.614;2023-03-31T03:26:54;12.50;59.10
27114;DHT22;14648;49.730;8.614;2023-03-31T03:29:20;12.40;59.10
27114;DHT22;14648;49.730;8.614;2023-03-31T03:31:46;12.40;59.10
27114;DHT22;14648;49.730;8.614;2023-03-31T03:34:12;12.40;59.10
27114;DHT22;14648;49.730;8.614;2023-03-31T03:36:38;12.50;59.20
27114;DHT22;14648;49.730;8.614;2023-03-31T03:39:06;12.50;59.20
27114;DHT22;14648;49.730;8.614;2023-03-31T03:41:32;12.50;59.30
27114;DHT22;14648;49.730;8.614;2023-03-31T03:44:01;12.50;59.30
27114;DHT22;14648;49.730;8.614;2023-03-31T03:46:27;12.50;59.40
27114;DHT22;14648;49.730;8.614;2023-03-31T03:48:52;12.50;59.50
27114;DHT22;14648;49.730;8.614;2023-03-31T03:51:18;12.50;59.60
27114;DHT22;14648;49.730;8.614;2023-03-31T03:53:44;12.40;59.50
27114;DHT22;14648;49.730;8.614;2023-03-31T03:56:12;12.40;59.60
27114;DHT22;14648;49.730;8.614;2023-03-31T03:58:38;12.40;59.70
27114;DHT22;14648;49.730;8.614;2023-03-31T04:01:04;12.50;59.80
27114;DHT22;14648;49.730;8.614;2023-03-31T04:03:30;12.50;59.90
27114;DHT22;14648;49.730;8.614;2023-03-31T04:05:56;12.40;59.70
27114;DHT22;14648;49.730;8.614;2023-03-31T04:08:22;12.50;59.80
27114;DHT22;14648;49.730;8.614;2023-03-31T04:10:48;12.50;59.90
27114;DHT22;14648;49.730;8.614;2023-03-31T04:13:15;12.50;59.80
27114;DHT22;14648;49.730;8.614;2023-03-31T04:15:42;12.50;59.80
27114;DHT22;14648;49.730;8.614;2023-03-31T04:18:08;12.50;59.80
27114;DHT22;14648;49.730;8.614;2023-03-31T04:20:36;12.50;59.80
27114;DHT22;14648;49.730;8.614;2023-03-31T04:23:03;12.50;59.70
27114;DHT22;14648;49.730;8.614;2023-03-31T04:25:34;12.50;59.60
27114;DHT22;14648;49.730;8.614;2023-03-31T04:28:03;12.60;59.60
27114;DHT22;14648;49.730;8.614;2023-03-31T04:30:31;12.50;59.50
27114;DHT22;14648;49.730;8.614;2023-03-31T04:32:59;12.60;59.40
27114;DHT22;14648;49.730;8.614;2023-03-31T04:35:28;12.60;59.30
27114;DHT22;14648;49.730;8.614;2023-03-31T04:38:07;12.60;59.30
27114;DHT22;14648;49.730;8.614;2023-03-31T04:40:33;12.60;59.20
27114;DHT22;14648;49.730;8.614;2023-03-31T04:43:00;12.60;59.20
27114;DHT22;14648;49.730;8.614;2023-03-31T04:45:26;12.70;59.30
27114;DHT22;14648;49.730;8.614;2023-03-31T04:47:51;12.60;59.10
27114;DHT22;14648;49.730;8.614;2023-03-31T04:50:17;12.70;59.10
27114;DHT22;14648;49.730;8.614;2023-03-31T04:52:43;12.70;59.10
27114;DHT22;14648;49.730;8.614;2023-03-31T04:55:09;12.70;59.10
27114;DHT22;14648;49.730;8.614;2023-03-31T04:57:35;12.70;59.10
27114;DHT22;14648;49.730;8.614;2023-03-31T05:00:02;12.60;59.10
27114;DHT22;14648;49.730;8.614;2023-03-31T05:02:32;12.60;59.40
27114;DHT22;14648;49.730;8.614;2023-03-31T05:04:58;12.50;59.60
27114;DHT22;14648;49.730;8.614;2023-03-31T05:07:23;12.50;59.90
27114;DHT22;14648;49.730;8.614;2023-03-31T05:09:49;12.40;60.10
27114;DHT22;14648;49.730;8.614;2023-03-31T05:12:15;12.30;60.40
27114;DHT22;14648;49.730;8.614;2023-03-31T05:14:41;12.20;60.60
27114;DHT22;14648;49.730;8.614;2023-03-31T05:17:06;12.20;60.80
27114;DHT22;14648;49.730;8.614;2023-03-31T05:19:32;12.10;61.10
27114;DHT22;14648;49.730;8.614;2023-03-31T05:21:58;12.10;61.30
27114;DHT22;14648;49.730;8.614;2023-03-31T05:24:25;12.00;61.40
27114;DHT22;14648;49.730;8.614;2023-03-31T05:26:53;12.00;61.70
27114;DHT22;14648;49.730;8.614;2023-03-31T05:29:19;12.00;61.80
27114;DHT22;14648;49.730;8.614;2023-03-31T05:31:45;11.90;61.90
27114;DHT22;14648;49.730;8.614;2023-03-31T05:34:12;11.90;62.00
27114;DHT22;14648;49.730;8.614;2023-03-31T05:36:38;11.90;62.10
27114;DHT22;14648;49.730;8.614;2023-03-31T05:39:04;11.90;62.10
27114;DHT22;14648;49.730;8.614;2023-03-31T05:41:30;11.80;62.20
27114;DHT22;14648;49.730;8.614;2023-03-31T05:43:56;11.80;62.30
27114;DHT22;14648;49.730;8.614;2023-03-31T05:46:22;11.80;62.50
27114;DHT22;14648;49.730;8.614;2023-03-31T05:48:48;11.80;62.70
27114;DHT22;14648;49.730;8.614;2023-03-31T05:51:14;11.80;62.80
27114;DHT22;14648;49.730;8.614;2023-03-31T05:53:39;11.70;63.00
27114;DHT22;14648;49.730;8.614;2023-03-31T05:56:06;11.80;63.00
27114;DHT22;14648;49.730;8.614;2023-03-31T05:58:36;11.80;63.20
27114;DHT22;14648;49.730;8.614;2023-03-31T06:01:07;11.70;63.40
27114;DHT22;14648;49.730;8.614;2023-03-31T06:03:35;11.70;63.50
27114;DHT22;14648;49.730;8.614;2023-03-31T06:06:03;11.70;63.50
27114;DHT22;14648;49.730;8.614;2023-03-31T06:08:30;11.70;63.80
27114;DHT22;14648;49.730;8.614;2023-03-31T06:10:57;11.70;63.90
27114;DHT22;14648;49.730;8.614;2023-03-31T06:13:23;11.60;64.10
27114;DHT22;14648;49.730;8.614;2023-03-31T06:15:56;11.60;64.20
27114;DHT22;14648;49.730;8.614;2023-03-31T06:18:23;11.60;64.60
27114;DHT22;14648;49.730;8.614;2023-03-31T06:20:50;11.50;64.60
27114;DHT22;14648;49.730;8.614;2023-03-31T06:23:16;11.50;64.80
27114;DHT22;14648;49.730;8.614;2023-03-31T06:25:42;11.50;65.00
27114;DHT22;14648;49.730;8.614;2023-03-31T06:28:08;11.50;65.20
27114;DHT22;14648;49.730;8.614;2023-03-31T06:30:33;11.50;65.30
27114;DHT22;14648;49.730;8.614;2023-03-31T06:33:00;11.40;65.30
27114;DHT22;14648;49.730;8.614;2023-03-31T06:35:25;11.50;65.50
27114;DHT22;14648;49.730;8.614;2023-03-31T06:37:51;11.50;65.60
27114;DHT22;14648;49.730;8.614;2023-03-31T06:40:17;11.50;65.80
27114;DHT22;14648;49.730;8.614;2023-03-31T06:42:46;11.50;65.80
27114;DHT22;14648;49.730;8.614;2023-03-31T06:45:12;11.60;66.00
27114;DHT22;14648;49.730;8.614;2023-03-31T06:47:38;11.60;66.00
27114;DHT22;14648;49.730;8.614;2023-03-31T06:50:07;11.70;66.00
27114;DHT22;14648;49.730;8.614;2023-03-31T06:52:34;11.70;66.00
27114;DHT22;14648;49.730;8.614;2023-03-31T06:55:01;11.70;66.00
27114;DHT22;14648;49.730;8.614;2023-03-31T06:57:28;11.80;66.80
27114;DHT22;14648;49.730;8.614;2023-03-31T06:59:53;11.70;66.10
27114;DHT22;14648;49.730;8.614;2023-03-31T07:02:19;11.80;66.20
27114;DHT22;14648;49.730;8.614;2023-03-31T07:04:45;11.80;66.30
27114;DHT22;14648;49.730;8.614;2023-03-31T07:07:11;11.80;66.40
27114;DHT22;14648;49.730;8.614;2023-03-31T07:09:37;11.80;66.40
27114;DHT22;14648;49.730;8.614;2023-03-31T07:12:03;11.80;66.60
27114;DHT22;14648;49.730;8.614;2023-03-31T07:14:32;11.80;66.60
27114;DHT22;14648;49.730;8.614;2023-03-31T07:16:58;11.80;66.80
27114;DHT22;14648;49.730;8.614;2023-03-31T07:19:24;11.80;66.80
27114;DHT22;14648;49.730;8.614;2023-03-31T07:21:50;11.80;66.90
27114;DHT22;14648;49.730;8.614;2023-03-31T07:24:17;11.90;67.00
27114;DHT22;14648;49.730;8.614;2023-03-31T07:26:42;11.90;67.20
27114;DHT22;14648;49.730;8.614;2023-03-31T07:29:08;11.90;67.30
27114;DHT22;14648;49.730;8.614;2023-03-31T07:31:34;11.90;67.20
27114;DHT22;14648;49.730;8.614;2023-03-31T07:34:01;11.90;67.30
27114;DHT22;14648;49.730;8.614;2023-03-31T07:36:27;12.00;67.40
27114;DHT22;14648;49.730;8.614;2023-03-31T07:38:53;11.90;67.60
27114;DHT22;14648;49.730;8.614;2023-03-31T07:41:20;11.90;67.80
27114;DHT22;14648;49.730;8.614;2023-03-31T07:43:47;11.80;68.20
27114;DHT22;14648;49.730;8.614;2023-03-31T07:46:24;11.80;68.10
27114;DHT22;14648;49.730;8.614;2023-03-31T07:48:52;11.70;68.10
27114;DHT22;14648;49.730;8.614;2023-03-31T07:51:21;11.60;68.20
27114;DHT22;14648;49.730;8.614;2023-03-31T07:53:49;11.60;68.40
27114;DHT22;14648;49.730;8.614;2023-03-31T07:56:18;11.60;68.30
27114;DHT22;14648;49.730;8.614;2023-03-31T07:58:45;11.50;68.20
27114;DHT22;14648;49.730;8.614;2023-03-31T08:01:16;11.50;68.20
27114;DHT22;14648;49.730;8.614;2023-03-31T08:03:46;11.50;68.00
27114;DHT22;14648;49.730;8.614;2023-03-31T08:06:21;11.50;67.90
27114;DHT22;14648;49.730;8.614;2023-03-31T08:08:48;11.50;68.00
27114;DHT22;14648;49.730;8.614;2023-03-31T08:11:15;11.50;67.80
27114;DHT22;14648;49.730;8.614;2023-03-31T08:13:42;11.50;67.70
27114;DHT22;14648;49.730;8.614;2023-03-31T08:16:07;11.50;67.80
27114;DHT22;14648;49.730;8.614;2023-03-31T08:18:33;11.50;67.90
27114;DHT22;14648;49.730;8.614;2023-03-31T08:20:59;11.60;68.00
27114;DHT22;14648;49.730;8.614;2023-03-31T08:23:25;11.60;68.10
27114;DHT22;14648;49.730;8.614;2023-03-31T08:25:51;11.60;68.30
27114;DHT22;14648;49.730;8.614;2023-03-31T08:28:17;11.60;68.30
27114;DHT22;14648;49.730;8.614;2023-03-31T08:30:43;11.60;68.40
27114;DHT22;14648;49.730;8.614;2023-03-31T08:33:08;11.60;68.60
27114;DHT22;14648;49.730;8.614;2023-03-31T08:35:37;11.60;68.70
27114;DHT22;14648;49.730;8.614;2023-03-31T08:38:03;11.60;68.90
27114;DHT22;14648;49.730;8.614;2023-03-31T08:40:30;11.60;69.00
27114;DHT22;14648;49.730;8.614;2023-03-31T08:43:13;11.60;69.10
27114;DHT22;14648;49.730;8.614;2023-03-31T08:45:45;11.60;69.50
27114;DHT22;14648;49.730;8.614;2023-03-31T08:48:26;11.70;69.50
27114;DHT22;14648;49.730;8.614;2023-03-31T08:51:16;11.70;69.70
27114;DHT22;14648;49.730;8.614;2023-03-31T08:53:59;11.80;69.70
27114;DHT22;14648;49.730;8.614;2023-03-31T08:56:29;11.80;69.70
27114;DHT22;14648;49.730;8.614;2023-03-31T08:58:59;11.90;69.60
27114;DHT22;14648;49.730;8.614;2023-03-31T09:01:36;11.90;69.70
27114;DHT22;14648;49.730;8.614;2023-03-31T09:13:54;12.10;70.40
27114;DHT22;14648;49.730;8.614;2023-03-31T09:16:55;12.40;70.20
27114;DHT22;14648;49.730;8.614;2023-03-31T09:19:42;12.50;70.20
27114;DHT22;14648;49.730;8.614;2023-03-31T09:22:33;12.60;70.30
27114;DHT22;14648;49.730;8.614;2023-03-31T09:25:35;12.70;70.40
27114;DHT22;14648;49.730;8.614;2023-03-31T09:28:18;12.80;70.20
27114;DHT22;14648;49.730;8.614;2023-03-31T09:30:47;12.90;70.00
27114;DHT22;14648;49.730;8.614;2023-03-31T09:33:25;12.90;69.90
27114;DHT22;14648;49.730;8.614;2023-03-31T09:35:58;12.90;69.90
27114;DHT22;14648;49.730;8.614;2023-03-31T09:38:25;12.80;70.60
27114;DHT22;14648;49.730;8.614;2023-03-31T09:40:57;12.80;70.10
27114;DHT22;14648;49.730;8.614;2023-03-31T09:43:27;12.70;70.10
27114;DHT22;14648;49.730;8.614;2023-03-31T09:45:55;12.70;69.90
27114;DHT22;14648;49.730;8.614;2023-03-31T09:48:34;12.60;69.40
27114;DHT22;14648;49.730;8.614;2023-03-31T09:51:06;12.50;68.90
27114;DHT22;14648;49.730;8.614;2023-03-31T09:53:58;12.50;68.50
27114;DHT22;14648;49.730;8.614;2023-03-31T09:56:55;12.30;68.30
27114;DHT22;14648;49.730;8.614;2023-03-31T09:59:32;12.10;68.20
27114;DHT22;14648;49.730;8.614;2023-03-31T10:02:02;11.90;68.30
27114;DHT22;14648;49.730;8.614;2023-03-31T10:04:44;11.80;68.20
27114;DHT22;14648;49.730;8.614;2023-03-31T10:07:11;11.80;68.20
27114;DHT22;14648;49.730;8.614;2023-03-31T10:09:38;11.80;68.10
27114;DHT22;14648;49.730;8.614;2023-03-31T10:14:44;11.70;68.10
27114;DHT22;14648;49.730;8.614;2023-03-31T10:17:19;11.80;68.00
27114;DHT22;14648;49.730;8.614;2023-03-31T10:19:51;11.80;67.90
27114;DHT22;14648;49.730;8.614;2023-03-31T10:24:50;12.00;67.60
27114;DHT22;14648;49.730;8.614;2023-03-31T10:27:24;12.00;67.60
27114;DHT22;14648;49.730;8.614;2023-03-31T10:29:53;12.10;67.60
27114;DHT22;14648;49.730;8.614;2023-03-31T10:32:30;12.20;67.40
27114;DHT22;14648;49.730;8.614;2023-03-31T10:35:03;12.30;67.40
27114;DHT22;14648;49.730;8.614;2023-03-31T10:37:31;12.50;67.50
27114;DHT22;14648;49.730;8.614;2023-03-31T10:42:39;12.70;67.00
27114;DHT22;14648;49.730;8.614;2023-03-31T10:45:27;12.80;66.90
27114;DHT22;14648;49.730;8.614;2023-03-31T10:47:57;13.00;66.60
27114;DHT22;14648;49.730;8.614;2023-03-31T10:50:35;13.10;66.50
27114;DHT22;14648;49.730;8.614;2023-03-31T10:53:08;13.30;66.40
27114;DHT22;14648;49.730;8.614;2023-03-31T10:56:53;13.40;66.00
27114;DHT22;14648;49.730;8.614;2023-03-31T11:11:07;14.10;65.30
27114;DHT22;14648;49.730;8.614;2023-03-31T11:14:06;14.20;64.80
27114;DHT22;14648;49.730;8.614;2023-03-31T11:16:40;14.30;64.70
27114;DHT22;14648;49.730;8.614;2023-03-31T11:19:45;14.40;64.30
27114;DHT22;14648;49.730;8.614;2023-03-31T11:22:34;14.50;64.10
27114;DHT22;14648;49.730;8.614;2023-03-31T11:25:19;14.60;63.70
27114;DHT22;14648;49.730;8.614;2023-03-31T11:31:05;14.60;63.30
27114;DHT22;14648;49.730;8.614;2023-03-31T11:43:23;14.50;63.50
27114;DHT22;14648;49.730;8.614;2023-03-31T11:46:09;14.50;63.30
27114;DHT22;14648;49.730;8.614;2023-03-31T11:48:45;14.50;63.00
27114;DHT22;14648;49.730;8.614;2023-03-31T11:51:29;14.50;62.90
27114;DHT22;14648;49.730;8.614;2023-03-31T11:53:59;14.40;62.40
27114;DHT22;14648;49.730;8.614;2023-03-31T11:56:35;14.40;62.20
27114;DHT22;14648;49.730;8.614;2023-03-31T11:59:03;14.40;61.70
27114;DHT22;14648;49.730;8.614;2023-03-31T12:01:51;14.40;61.70
27114;DHT22;14648;49.730;8.614;2023-03-31T12:04:34;14.50;60.80
27114;DHT22;14648;49.730;8.614;2023-03-31T12:15:32;14.80;59.50
27114;DHT22;14648;49.730;8.614;2023-03-31T12:18:21;14.90;59.70
27114;DHT22;14648;49.730;8.614;2023-03-31T12:20:55;14.70;59.70
27114;DHT22;14648;49.730;8.614;2023-03-31T12:23:28;14.70;59.90
27114;DHT22;14648;49.730;8.614;2023-03-31T12:28:43;14.60;59.80
27114;DHT22;14648;49.730;8.614;2023-03-31T12:31:17;14.60;60.10
27114;DHT22;14648;49.730;8.614;2023-03-31T12:33:55;14.80;59.90
27114;DHT22;14648;49.730;8.614;2023-03-31T12:43:31;15.40;58.00
27114;DHT22;14648;49.730;8.614;2023-03-31T12:45:30;15.80;57.00
27114;DHT22;14648;49.730;8.614;2023-03-31T12:48:19;16.00;56.90
27114;DHT22;14648;49.730;8.614;2023-03-31T12:51:07;16.30;56.50
27114;DHT22;14648;49.730;8.614;2023-03-31T12:54:19;16.70;56.20
27114;DHT22;14648;49.730;8.614;2023-03-31T12:59:32;16.70;54.10
27114;DHT22;14648;49.730;8.614;2023-03-31T13:04:38;16.70;53.90
27114;DHT22;14648;49.730;8.614;2023-03-31T13:09:47;16.60;52.90
27114;DHT22;14648;49.730;8.614;2023-03-31T13:12:20;16.40;53.00
27114;DHT22;14648;49.730;8.614;2023-03-31T13:14:49;16.30;53.00
27114;DHT22;14648;49.730;8.614;2023-03-31T13:17:31;16.30;52.70
27114;DHT22;14648;49.730;8.614;2023-03-31T13:23:23;16.20;52.80
27114;DHT22;14648;49.730;8.614;2023-03-31T13:25:57;16.00;52.40
27114;DHT22;14648;49.730;8.614;2023-03-31T13:28:38;15.90;52.20
27114;DHT22;14648;49.730;8.614;2023-03-31T13:31:15;15.70;52.30
27114;DHT22;14648;49.730;8.614;2023-03-31T13:33:56;15.60;52.00
27114;DHT22;14648;49.730;8.614;2023-03-31T13:45:26;14.20;53.80
27114;DHT22;14648;49.730;8.614;2023-03-31T13:48:13;14.00;54.80
27114;DHT22;14648;49.730;8.614;2023-03-31T14:00:48;13.30;56.40
27114;DHT22;14648;49.730;8.614;2023-03-31T14:03:54;13.30;56.90
27114;DHT22;14648;49.730;8.614;2023-03-31T14:06:55;13.40;57.20
27114;DHT22;14648;49.730;8.614;2023-03-31T14:09:35;13.40;57.40
27114;DHT22;14648;49.730;8.614;2023-03-31T14:15:01;13.50;57.50
27114;DHT22;14648;49.730;8.614;2023-03-31T14:17:32;13.50;57.40
27114;DHT22;14648;49.730;8.614;2023-03-31T14:20:21;13.50;57.60
27114;DHT22;14648;49.730;8.614;2023-03-31T14:34:03;14.00;58.10
27114;DHT22;14648;49.730;8.614;2023-03-31T14:39:32;14.30;57.90
27114;DHT22;14648;49.730;8.614;2023-03-31T14:42:18;14.50;57.90
27114;DHT22;14648;49.730;8.614;2023-03-31T14:44:47;14.70;57.60
27114;DHT22;14648;49.730;8.614;2023-03-31T14:47:21;14.80;57.30
27114;DHT22;14648;49.730;8.614;2023-03-31T14:50:02;14.80;57.00
27114;DHT22;14648;49.730;8.614;2023-03-31T14:52:36;14.80;56.80
27114;DHT22;14648;49.730;8.614;2023-03-31T14:55:02;14.90;56.90
27114;DHT22;14648;49.730;8.614;2023-03-31T14:57:37;14.90;56.70
27114;DHT22;14648;49.730;8.614;2023-03-31T15:00:07;14.80;56.40
27114;DHT22;14648;49.730;8.614;2023-03-31T15:02:39;14.80;56.10
27114;DHT22;14648;49.730;8.614;2023-03-31T15:05:08;14.80;55.90
27114;DHT22;14648;49.730;8.614;2023-03-31T15:07:44;14.70;55.40
27114;DHT22;14648;49.730;8.614;2023-03-31T15:10:19;14.60;55.10
27114;DHT22;14648;49.730;8.614;2023-03-31T15:12:49;14.20;54.80
27114;DHT22;14648;49.730;8.614;2023-03-31T15:15:18;13.50;55.30
27114;DHT22;14648;49.730;8.614;2023-03-31T15:17:46;13.00;56.00
27114;DHT22;14648;49.730;8.614;2023-03-31T15:23:02;12.30;57.80
27114;DHT22;14648;49.730;8.614;2023-03-31T15:25:36;12.20;58.00
27114;DHT22;14648;49.730;8.614;2023-03-31T15:28:10;12.00;58.40
27114;DHT22;14648;49.730;8.614;2023-03-31T15:30:38;12.00;58.60
27114;DHT22;14648;49.730;8.614;2023-03-31T15:33:13;11.90;59.00
27114;DHT22;14648;49.730;8.614;2023-03-31T15:35:42;11.90;59.50
27114;DHT22;14648;49.730;8.614;2023-03-31T15:38:10;11.90;59.60
27114;DHT22;14648;49.730;8.614;2023-03-31T15:40:41;12.00;60.10
27114;DHT22;14648;49.730;8.614;2023-03-31T15:43:27;12.00;60.40
27114;DHT22;14648;49.730;8.614;2023-03-31T15:45:56;12.10;61.30
27114;DHT22;14648;49.730;8.614;2023-03-31T15:48:32;12.20;60.90
27114;DHT22;14648;49.730;8.614;2023-03-31T15:51:23;12.30;61.00
27114;DHT22;14648;49.730;8.614;2023-03-31T15:53:52;12.30;61.10
27114;DHT22;14648;49.730;8.614;2023-03-31T15:56:40;12.30;61.00
27114;DHT22;14648;49.730;8.614;2023-03-31T15:59:29;12.30;61.40
27114;DHT22;14648;49.730;8.614;2023-03-31T16:01:57;12.30;61.40
27114;DHT22;14648;49.730;8.614;2023-03-31T16:04:31;12.30;61.40
27114;DHT22;14648;49.730;8.614;2023-03-31T16:07:18;12.30;61.60
27114;DHT22;14648;49.730;8.614;2023-03-31T16:12:52;12.40;61.70
27114;DHT22;14648;49.730;8.614;2023-03-31T16:15:29;12.50;62.10
27114;DHT22;14648;49.730;8.614;2023-03-31T16:18:05;12.50;62.10
27114;DHT22;14648;49.730;8.614;2023-03-31T16:20:44;12.60;62.10
27114;DHT22;14648;49.730;8.614;2023-03-31T16:23:17;12.60;62.00
27114;DHT22;14648;49.730;8.614;2023-03-31T16:25:44;12.60;62.00
27114;DHT22;14648;49.730;8.614;2023-03-31T16:28:22;12.60;62.00
27114;DHT22;14648;49.730;8.614;2023-03-31T16:30:50;12.70;62.30
27114;DHT22;14648;49.730;8.614;2023-03-31T16:33:19;12.70;62.30
27114;DHT22;14648;49.730;8.614;2023-03-31T16:35:50;12.70;65.50
27114;DHT22;14648;49.730;8.614;2023-03-31T16:38:19;12.70;64.10
27114;DHT22;14648;49.730;8.614;2023-03-31T16:40:56;12.80;63.80
27114;DHT22;14648;49.730;8.614;2023-03-31T16:43:27;12.70;63.50
27114;DHT22;14648;49.730;8.614;2023-03-31T16:45:57;12.80;63.40
27114;DHT22;14648;49.730;8.614;2023-03-31T16:48:25;12.80;63.20
27114;DHT22;14648;49.730;8.614;2023-03-31T16:50:55;12.70;63.10
27114;DHT22;14648;49.730;8.614;2023-03-31T16:53:25;12.70;63.00
27114;DHT22;14648;49.730;8.614;2023-03-31T16:55:52;12.70;63.60
27114;DHT22;14648;49.730;8.614;2023-03-31T16:58:19;12.70;62.80
27114;DHT22;14648;49.730;8.614;2023-03-31T17:00:45;12.70;62.80
27114;DHT22;14648;49.730;8.614;2023-03-31T17:03:12;12.60;62.80
27114;DHT22;14648;49.730;8.614;2023-03-31T17:05:48;12.60;62.70
27114;DHT22;14648;49.730;8.614;2023-03-31T17:08:18;12.60;62.80
27114;DHT22;14648;49.730;8.614;2023-03-31T17:10:55;12.60;62.60
27114;DHT22;14648;49.730;8.614;2023-03-31T17:13:26;12.60;62.80
27114;DHT22;14648;49.730;8.614;2023-03-31T17:15:52;12.50;62.70
27114;DHT22;14648;49.730;8.614;2023-03-31T17:18:18;12.60;62.80
27114;DHT22;14648;49.730;8.614;2023-03-31T17:20:44;12.50;62.80
27114;DHT22;14648;49.730;8.614;2023-03-31T17:23:10;12.50;63.20
27114;DHT22;14648;49.730;8.614;2023-03-31T17:25:36;12.60;62.90
27114;DHT22;14648;49.730;8.614;2023-03-31T17:28:03;12.50;62.80
27114;DHT22;14648;49.730;8.614;2023-03-31T17:30:29;12.50;62.80
27114;DHT22;14648;49.730;8.614;2023-03-31T17:32:56;12.60;62.80
27114;DHT22;14648;49.730;8.614;2023-03-31T17:35:25;12.60;62.80
27114;DHT22;14648;49.730;8.614;2023-03-31T17:37:51;12.60;62.90
27114;DHT22;14648;49.730;8.614;2023-03-31T17:40:21;12.60;62.90
27114;DHT22;14648;49.730;8.614;2023-03-31T17:42:48;12.50;62.90
27114;DHT22;14648;49.730;8.614;2023-03-31T17:45:14;12.50;62.90
27114;DHT22;14648;49.730;8.614;2023-03-31T17:47:40;12.50;63.00
27114;DHT22;14648;49.730;8.614;2023-03-31T17:50:07;12.50;63.00
27114;DHT22;14648;49.730;8.614;2023-03-31T17:52:34;12.60;62.90
27114;DHT22;14648;49.730;8.614;2023-03-31T17:55:01;12.60;62.80
27114;DHT22;14648;49.730;8.614;2023-03-31T17:57:28;12.60;62.70
27114;DHT22;14648;49.730;8.614;2023-03-31T17:59:55;12.60;62.50
27114;DHT22;14648;49.730;8.614;2023-03-31T18:02:21;12.60;62.50
27114;DHT22;14648;49.730;8.614;2023-03-31T18:04:48;12.60;62.50
27114;DHT22;14648;49.730;8.614;2023-03-31T18:07:14;12.60;62.40
27114;DHT22;14648;49.730;8.614;2023-03-31T18:09:42;12.60;62.40
27114;DHT22;14648;49.730;8.614;2023-03-31T18:12:08;12.60;62.40
27114;DHT22;14648;49.730;8.614;2023-03-31T18:14:34;12.60;62.40
27114;DHT22;14648;49.730;8.614;2023-03-31T18:16:59;12.60;62.40
27114;DHT22;14648;49.730;8.614;2023-03-31T18:19:26;12.60;62.40
27114;DHT22;14648;49.730;8.614;2023-03-31T18:21:51;12.50;62.40
27114;DHT22;14648;49.730;8.614;2023-03-31T18:24:17;12.50;62.40
27114;DHT22;14648;49.730;8.614;2023-03-31T18:26:44;12.50;62.40
27114;DHT22;14648;49.730;8.614;2023-03-31T18:29:11;12.40;62.20
27114;DHT22;14648;49.730;8.614;2023-03-31T18:31:37;12.40;62.00